Time;durP1;ratioP1;P1;durP2;ratioP2;P2;SDS_P1;SDS_P2;PMS_P1;PMS_P2;Temp;Humidity;BMP_temperature;BMP_pressure;BME280_temperature;BME280_humidity;BME280_pressure;Samples;Min_cycle;Max_cycle;Signal;HPM_P1;HPM_P2
2023/03/20 00:01:15;;;;;;;8.65;6.00;;;7.70;99.90;;;;;;5083094;28;20905;-91
2023/03/20 00:03:42;;;;;;;12.68;6.78;;;7.70;99.90;;;;;;5087069;28;20406;-91
2023/03/20 00:06:15;;;;;;;9.60;6.80;;;7.70;99.90;;;;;;5071117;28;20753;-90
2023/03/20 00:08:44;;;;;;;11.60;6.93;;;7.70;99.90;;;;;;5070121;28;20471;-91
2023/03/20 00:11:35;;;;;;;11.48;6.25;;;7.70;99.90;;;;;;5071504;28;20752;-92
2023/03/20 00:14:12;;;;;;;11.57;7.25;;;7.70;99.90;;;;;;5063118;28;20418;-91
2023/03/20 00:16:42;;;;;;;10.40;6.90;;;7.70;99.90;;;;;;5087145;28;20437;-93
2023/03/20 00:19:18;;;;;;;9.35;6.60;;;7.90;99.90;;;;;;5070981;28;20406;-90
2023/03/20 00:21:46;;;;;;;9.23;5.93;;;7.70;99.90;;;;;;5069869;28;20429;-91
2023/03/20 00:24:13;;;;;;;11.20;6.10;;;7.70;99.90;;;;;;5088318;28;20401;-91
2023/03/20 00:26:39;;;;;;;13.30;6.10;;;7.80;99.90;;;;;;5086586;28;20416;-92
2023/03/20 00:29:06;;;;;;;8.18;6.05;;;7.60;99.90;;;;;;5070065;28;20395;-94
2023/03/20 00:31:37;;;;;;;11.85;6.07;;;7.70;99.90;;;;;;5087383;28;20726;-91
2023/03/20 00:34:05;;;;;;;10.27;6.40;;;7.70;99.90;;;;;;5104213;28;20406;-91
2023/03/20 00:36:31;;;;;;;10.68;6.05;;;7.70;99.90;;;;;;5087116;28;20449;-91
2023/03/20 00:38:57;;;;;;;10.10;6.10;;;7.80;99.90;;;;;;5069446;28;20398;-91
2023/03/20 00:41:37;;;;;;;8.60;6.10;;;7.80;99.90;;;;;;5086199;28;20409;-92
2023/03/20 00:44:11;;;;;;;11.05;6.65;;;7.80;99.90;;;;;;5070145;28;20537;-90
2023/03/20 00:46:38;;;;;;;10.87;6.73;;;7.80;99.90;;;;;;5070117;28;20406;-90
2023/03/20 00:49:04;;;;;;;11.27;6.07;;;7.80;99.90;;;;;;5086558;28;20417;-91
2023/03/20 00:51:30;;;;;;;11.80;6.65;;;7.80;99.90;;;;;;5086043;28;20417;-91
2023/03/20 00:53:56;;;;;;;10.25;6.20;;;7.80;99.90;;;;;;5070141;28;21254;-90
2023/03/20 00:56:44;;;;;;;11.27;6.30;;;7.80;99.90;;;;;;5069206;28;20467;-91
2023/03/20 00:59:18;;;;;;;10.83;6.33;;;7.80;99.90;;;;;;5070101;28;20442;-93
2023/03/20 01:01:44;;;;;;;11.20;6.68;;;7.80;99.90;;;;;;5069727;28;20498;-91
2023/03/20 01:04:15;;;;;;;10.25;6.00;;;7.80;99.90;;;;;;5069249;28;20398;-91
2023/03/20 01:06:41;;;;;;;12.90;6.75;;;7.80;99.90;;;;;;5069798;28;20410;-91
2023/03/20 01:09:07;;;;;;;13.82;7.57;;;7.80;99.90;;;;;;5085777;28;20418;-92
2023/03/20 01:11:33;;;;;;;12.20;8.00;;;7.80;99.90;;;;;;5086996;28;20441;-91
2023/03/20 01:13:59;;;;;;;14.27;8.15;;;7.80;99.90;;;;;;5068986;28;20419;-91
2023/03/20 01:16:26;;;;;;;12.77;7.53;;;7.80;99.90;;;;;;5086193;28;20426;-92
2023/03/20 01:18:52;;;;;;;17.23;8.17;;;7.80;99.90;;;;;;5068889;28;20432;-92
2023/03/20 01:21:19;;;;;;;14.95;7.57;;;7.70;99.90;;;;;;5068825;28;20398;-90
2023/03/20 01:23:46;;;;;;;16.58;7.85;;;7.80;99.90;;;;;;5069394;28;20448;-91
2023/03/20 01:26:21;;;;;;;14.20;7.95;;;7.80;99.90;;;;;;5085844;28;20402;-90
2023/03/20 01:28:48;;;;;;;13.95;7.60;;;7.80;99.90;;;;;;5069450;28;20402;-91
2023/03/20 01:31:16;;;;;;;17.80;8.30;;;7.90;99.90;;;;;;5068247;28;20453;-91
2023/03/20 01:33:42;;;;;;;15.38;7.80;;;7.80;99.90;;;;;;5103169;28;20512;-90
2023/03/20 01:36:13;;;;;;;15.77;8.07;;;7.80;99.90;;;;;;5085711;28;20610;-90
2023/03/20 01:38:40;;;;;;;15.77;7.87;;;7.80;99.90;;;;;;5085616;28;20704;-92
2023/03/20 01:41:13;;;;;;;16.52;8.50;;;7.80;99.90;;;;;;5069173;28;20774;-92
2023/03/20 01:43:40;;;;;;;17.85;7.97;;;7.80;99.90;;;;;;5085263;28;20410;-91
2023/03/20 01:46:25;;;;;;;17.70;8.13;;;7.80;99.90;;;;;;5069414;28;20398;-90
2023/03/20 01:48:56;;;;;;;16.10;8.27;;;7.90;99.90;;;;;;5068538;28;20505;-90
2023/03/20 01:51:35;;;;;;;17.27;8.32;;;7.80;99.90;;;;;;5085791;28;20440;-90
2023/03/20 01:54:10;;;;;;;22.10;8.63;;;7.80;99.90;;;;;;5085436;28;20493;-92
2023/03/20 01:56:52;;;;;;;17.65;9.15;;;7.80;99.90;;;;;;5068054;28;20461;-92
2023/03/20 01:59:44;;;;;;;15.65;8.18;;;8.00;99.90;;;;;;5081161;28;20421;-90
2023/03/20 02:02:14;;;;;;;19.83;8.75;;;7.90;99.90;;;;;;5061268;28;20446;-91
2023/03/20 02:04:43;;;;;;;18.63;8.48;;;7.90;99.90;;;;;;5068172;28;20443;-92
2023/03/20 02:07:12;;;;;;;17.77;8.00;;;7.90;99.90;;;;;;5068089;28;20928;-90
2023/03/20 02:09:38;;;;;;;16.70;8.10;;;7.90;99.90;;;;;;5068045;28;20832;-91
2023/03/20 02:12:04;;;;;;;18.25;8.23;;;7.90;99.90;;;;;;5069132;28;20411;-91
2023/03/20 02:14:31;;;;;;;16.70;8.63;;;7.90;99.90;;;;;;5068171;28;20443;-91
2023/03/20 02:16:57;;;;;;;19.85;8.85;;;7.90;99.90;;;;;;5085101;28;20418;-91
2023/03/20 02:19:42;;;;;;;19.70;9.15;;;7.90;99.90;;;;;;5067988;28;20398;-91
2023/03/20 02:22:45;;;;;;;18.60;9.25;;;7.90;99.90;;;;;;5084581;28;20536;-90
2023/03/20 02:25:46;;;;;;;19.08;9.63;;;8.00;99.90;;;;;;5050900;28;20547;-90
2023/03/20 02:28:41;;;;;;;17.03;8.80;;;7.90;99.90;;;;;;5085169;28;20811;-91
2023/03/20 02:31:35;;;;;;;15.55;8.40;;;8.10;99.90;;;;;;5076161;28;20489;-92
2023/03/20 02:34:44;;;;;;;14.82;8.65;;;8.20;99.90;;;;;;5068464;28;20406;-91
2023/03/20 02:37:32;;;;;;;16.73;8.85;;;8.00;99.90;;;;;;5068471;28;20402;-92
2023/03/20 02:40:07;;;;;;;17.17;8.68;;;8.10;99.90;;;;;;5084200;28;20398;-91
2023/03/20 02:43:08;;;;;;;18.42;8.60;;;8.00;99.90;;;;;;5085564;28;21716;-92
2023/03/20 02:45:50;;;;;;;16.90;8.95;;;8.00;99.90;;;;;;5068413;28;20500;-91
2023/03/20 02:48:43;;;;;;;16.92;8.82;;;8.00;99.90;;;;;;5084748;28;20399;-92
2023/03/20 02:51:48;;;;;;;17.42;8.77;;;8.00;99.90;;;;;;5085290;28;20860;-91
2023/03/20 02:54:29;;;;;;;15.68;8.18;;;8.00;99.90;;;;;;5056811;28;20438;-91
2023/03/20 02:57:27;;;;;;;15.25;8.80;;;8.00;99.90;;;;;;5067509;28;20418;-90
2023/03/20 03:00:01;;;;;;;18.55;9.32;;;7.70;99.90;;;;;;5068696;28;20916;-91
2023/03/20 03:02:35;;;;;;;17.05;9.10;;;8.00;99.90;;;;;;5067341;28;20531;-92
2023/03/20 03:05:17;;;;;;;19.17;10.05;;;8.00;99.90;;;;;;5070710;28;20402;-90
2023/03/20 03:07:48;;;;;;;17.67;10.48;;;8.10;99.90;;;;;;5088507;28;20410;-90
2023/03/20 03:10:26;;;;;;;19.00;10.40;;;8.00;99.90;;;;;;5088204;28;20406;-92
2023/03/20 03:12:54;;;;;;;17.55;10.25;;;8.00;99.90;;;;;;5089184;28;20904;-92
2023/03/20 03:15:41;;;;;;;16.27;9.75;;;8.00;99.90;;;;;;5088237;28;20422;-91
2023/03/20 03:18:13;;;;;;;17.17;10.05;;;8.00;99.90;;;;;;5088391;28;20900;-91
2023/03/20 03:20:39;;;;;;;16.65;10.25;;;8.00;99.90;;;;;;5089062;28;20875;-91
2023/03/20 03:23:05;;;;;;;17.33;9.98;;;8.00;99.90;;;;;;5088135;28;20394;-93
2023/03/20 03:25:34;;;;;;;17.33;10.07;;;8.10;99.90;;;;;;5071879;28;20394;-91
2023/03/20 03:28:06;;;;;;;17.33;9.70;;;8.10;99.90;;;;;;5070927;28;20394;-91
2023/03/20 03:30:35;;;;;;;15.88;9.70;;;8.10;99.90;;;;;;5072267;28;20410;-91
2023/03/20 03:33:10;;;;;;;16.17;9.40;;;8.20;99.90;;;;;;5071811;28;20467;-91
2023/03/20 03:35:36;;;;;;;13.77;8.93;;;8.10;99.90;;;;;;5070997;28;20789;-91
2023/03/20 03:38:29;;;;;;;12.82;8.70;;;8.10;99.90;;;;;;5088282;28;20429;-91
2023/03/20 03:41:30;;;;;;;14.13;8.70;;;8.10;99.90;;;;;;5070658;28;20425;-91
2023/03/20 03:44:18;;;;;;;12.68;8.63;;;8.10;99.90;;;;;;5083794;28;20402;-92
2023/03/20 03:47:13;;;;;;;12.05;8.02;;;8.20;99.90;;;;;;5087970;28;20406;-91
2023/03/20 03:49:46;;;;;;;12.10;8.25;;;8.10;99.90;;;;;;5087152;28;20469;-90
2023/03/20 03:52:16;;;;;;;12.27;7.38;;;8.10;99.90;;;;;;5071314;28;20402;-91
2023/03/20 03:54:47;;;;;;;11.93;7.68;;;8.20;99.90;;;;;;5087464;28;20458;-91
2023/03/20 03:57:19;;;;;;;14.32;7.35;;;8.20;99.90;;;;;;5070829;28;20483;-93
2023/03/20 03:59:49;;;;;;;12.00;7.10;;;8.20;99.90;;;;;;5087721;28;20398;-91
2023/03/20 04:02:18;;;;;;;12.97;8.03;;;8.10;99.90;;;;;;5087248;28;20486;-91
2023/03/20 04:04:46;;;;;;;13.23;8.43;;;8.20;99.90;;;;;;5071806;28;20769;-90
2023/03/20 04:07:15;;;;;;;11.07;8.07;;;8.30;99.90;;;;;;5087085;28;20402;-92
2023/03/20 04:09:41;;;;;;;13.55;8.00;;;8.10;99.90;;;;;;5071030;28;20532;-92
2023/03/20 04:12:29;;;;;;;14.50;8.45;;;8.10;99.90;;;;;;5070626;28;20485;-91
2023/03/20 04:14:55;;;;;;;14.43;9.17;;;8.10;99.90;;;;;;5070419;28;20500;-91
2023/03/20 04:17:20;;;;;;;15.77;9.63;;;8.10;99.90;;;;;;5070969;28;20402;-91
2023/03/20 04:19:46;;;;;;;15.73;9.88;;;8.10;99.90;;;;;;5070389;28;20421;-92
2023/03/20 04:22:12;;;;;;;16.93;10.93;;;8.10;99.90;;;;;;5071142;28;20394;-91
2023/03/20 04:24:37;;;;;;;17.10;11.38;;;8.30;99.90;;;;;;5087389;28;20413;-91
2023/03/20 04:27:03;;;;;;;18.65;11.60;;;8.40;99.90;;;;;;5086957;28;20402;-91
2023/03/20 04:29:28;;;;;;;21.20;12.03;;;8.10;99.90;;;;;;5070380;28;20480;-91
2023/03/20 04:31:55;;;;;;;18.63;13.03;;;8.10;99.90;;;;;;5087201;28;20507;-90
2023/03/20 04:34:21;;;;;;;18.15;12.15;;;8.10;99.90;;;;;;5071043;28;20791;-91
2023/03/20 04:36:47;;;;;;;19.83;12.57;;;8.10;99.90;;;;;;5086516;28;20433;-91
2023/03/20 04:39:13;;;;;;;18.13;13.20;;;8.30;99.90;;;;;;5088097;28;20398;-91
2023/03/20 04:41:39;;;;;;;20.70;12.68;;;8.10;99.90;;;;;;5086758;28;20417;-90
2023/03/20 04:44:05;;;;;;;18.48;12.77;;;8.10;99.90;;;;;;5087532;28;20403;-92
2023/03/20 04:46:31;;;;;;;17.63;10.55;;;8.10;99.90;;;;;;5070141;28;20417;-92
2023/03/20 04:48:56;;;;;;;18.20;10.93;;;8.00;99.90;;;;;;5069887;28;20397;-92
2023/03/20 04:51:22;;;;;;;17.63;11.07;;;8.10;99.90;;;;;;5086526;28;20493;-92
2023/03/20 04:53:48;;;;;;;18.23;11.80;;;8.00;99.90;;;;;;5069623;28;20484;-91
2023/03/20 04:56:13;;;;;;;18.17;12.05;;;8.10;99.90;;;;;;5069941;28;20952;-90
2023/03/20 04:58:39;;;;;;;18.57;12.03;;;8.20;99.90;;;;;;5069097;28;20394;-92
2023/03/20 05:01:05;;;;;;;20.07;12.90;;;8.30;99.90;;;;;;5087365;28;20401;-92
2023/03/20 05:03:30;;;;;;;21.40;13.20;;;8.00;99.90;;;;;;5069537;28;20514;-91
2023/03/20 05:05:56;;;;;;;20.10;12.20;;;8.00;99.90;;;;;;5086671;28;20528;-91
2023/03/20 05:08:22;;;;;;;19.38;12.88;;;8.10;99.90;;;;;;5086076;28;20410;-92
2023/03/20 05:10:47;;;;;;;18.87;12.70;;;8.10;99.90;;;;;;5069571;28;20410;-91
2023/03/20 05:13:13;;;;;;;19.83;12.70;;;8.00;99.90;;;;;;5069814;28;20942;-91
2023/03/20 05:15:38;;;;;;;21.52;12.80;;;8.00;99.90;;;;;;5086081;28;20793;-92
2023/03/20 05:18:04;;;;;;;20.20;12.57;;;8.10;99.90;;;;;;5086984;28;20406;-91
2023/03/20 05:20:30;;;;;;;20.30;12.87;;;8.00;99.90;;;;;;5068839;28;20402;-90
2023/03/20 05:22:55;;;;;;;21.67;13.18;;;8.00;99.90;;;;;;5069855;28;20444;-92
2023/03/20 05:25:21;;;;;;;22.47;13.93;;;8.00;99.90;;;;;;5069017;28;20468;-91
2023/03/20 05:27:46;;;;;;;20.27;13.90;;;8.00;99.90;;;;;;5068519;28;20451;-92
2023/03/20 05:30:14;;;;;;;21.80;14.18;;;8.00;99.90;;;;;;5068417;28;20489;-91
2023/03/20 05:32:40;;;;;;;20.77;14.10;;;8.00;99.90;;;;;;5085792;28;20870;-90
2023/03/20 05:35:07;;;;;;;21.10;13.88;;;8.00;99.90;;;;;;5069293;28;20430;-91
2023/03/20 05:37:33;;;;;;;18.88;12.98;;;8.00;99.90;;;;;;5085325;28;20428;-92
2023/03/20 05:39:59;;;;;;;22.10;13.70;;;8.00;99.90;;;;;;5086363;28;20414;-91
2023/03/20 05:42:25;;;;;;;20.13;12.90;;;8.00;99.90;;;;;;5068736;28;20801;-91
2023/03/20 05:44:50;;;;;;;20.65;13.80;;;8.00;99.90;;;;;;5085689;28;20394;-91
2023/03/20 05:47:16;;;;;;;21.47;13.97;;;8.00;99.90;;;;;;5085159;28;20402;-92
2023/03/20 05:49:42;;;;;;;20.10;14.02;;;8.30;99.90;;;;;;5085584;28;20773;-91
2023/03/20 05:52:07;;;;;;;20.67;14.32;;;8.00;99.90;;;;;;5068901;28;21018;-91
2023/03/20 05:54:33;;;;;;;20.37;14.47;;;8.00;99.90;;;;;;5068633;28;20479;-90
2023/03/20 05:56:58;;;;;;;20.48;14.32;;;8.00;99.90;;;;;;5069007;28;20414;-91
2023/03/20 05:59:24;;;;;;;20.98;14.00;;;8.00;99.90;;;;;;5085194;28;20785;-91
2023/03/20 06:01:50;;;;;;;21.63;14.57;;;8.00;99.90;;;;;;5086189;28;20908;-91
2023/03/20 06:04:16;;;;;;;21.55;14.38;;;8.00;99.90;;;;;;5084950;28;20456;-90
2023/03/20 06:06:41;;;;;;;21.35;13.65;;;8.00;99.90;;;;;;5068274;28;20413;-92
2023/03/20 06:09:07;;;;;;;22.35;14.45;;;8.00;99.90;;;;;;5067613;28;20398;-91
2023/03/20 06:11:32;;;;;;;21.07;13.93;;;8.00;99.90;;;;;;5068549;28;20406;-91
2023/03/20 06:13:58;;;;;;;21.85;14.07;;;7.90;99.90;;;;;;5068365;28;20421;-91
2023/03/20 06:16:25;;;;;;;21.15;14.48;;;8.10;99.90;;;;;;5067777;28;20949;-91
2023/03/20 06:18:51;;;;;;;21.38;14.38;;;8.20;99.90;;;;;;5068776;28;20408;-91
2023/03/20 06:21:17;;;;;;;22.60;14.35;;;7.90;99.90;;;;;;5068070;28;20500;-92
2023/03/20 06:23:42;;;;;;;20.67;13.97;;;8.20;99.90;;;;;;5068663;28;20407;-92
2023/03/20 06:26:08;;;;;;;18.53;14.07;;;8.10;99.90;;;;;;5068071;28;20463;-91
2023/03/20 06:28:34;;;;;;;21.15;14.98;;;8.10;99.90;;;;;;5085079;28;20876;-91
2023/03/20 06:30:59;;;;;;;21.70;14.80;;;8.10;99.90;;;;;;5084992;28;20410;-93
2023/03/20 06:33:25;;;;;;;22.33;14.32;;;8.10;99.90;;;;;;5067976;28;20417;-91
2023/03/20 06:35:51;;;;;;;22.00;15.20;;;8.10;99.90;;;;;;5068354;28;20426;-91
2023/03/20 06:38:17;;;;;;;20.80;14.80;;;8.10;99.90;;;;;;5067122;28;20402;-91
2023/03/20 06:40:44;;;;;;;20.47;14.67;;;8.10;99.90;;;;;;5068566;28;20410;-91
2023/03/20 06:43:11;;;;;;;20.90;14.57;;;8.10;99.90;;;;;;5067631;28;20424;-91
2023/03/20 06:45:37;;;;;;;23.40;15.30;;;8.20;99.90;;;;;;5085207;28;20516;-91
2023/03/20 06:48:07;;;;;;;22.02;15.18;;;8.00;99.90;;;;;;5084613;28;20440;-91
2023/03/20 06:50:33;;;;;;;22.35;15.60;;;8.20;99.90;;;;;;5084609;28;20770;-91
2023/03/20 06:52:59;;;;;;;22.13;15.50;;;8.20;99.90;;;;;;5068903;28;20398;-91
2023/03/20 06:55:24;;;;;;;23.23;15.68;;;8.20;99.90;;;;;;5067031;28;20430;-92
2023/03/20 06:57:50;;;;;;;23.33;15.27;;;8.30;99.90;;;;;;5069180;28;20409;-91
2023/03/20 07:00:16;;;;;;;23.83;16.23;;;8.30;99.90;;;;;;5083937;28;20429;-92
2023/03/20 07:02:42;;;;;;;23.70;15.70;;;8.30;99.90;;;;;;5068632;28;20398;-90
2023/03/20 07:05:09;;;;;;;24.63;16.33;;;8.40;99.90;;;;;;5067835;28;20421;-91
2023/03/20 07:07:35;;;;;;;25.10;16.63;;;8.40;99.90;;;;;;5084721;28;20763;-92
2023/03/20 07:10:01;;;;;;;23.73;16.60;;;8.40;99.90;;;;;;5084177;28;20440;-91
2023/03/20 07:12:27;;;;;;;25.73;16.40;;;8.40;99.90;;;;;;5084458;28;20420;-92
2023/03/20 07:14:54;;;;;;;24.15;16.02;;;8.50;99.90;;;;;;5085021;28;20483;-91
2023/03/20 07:17:21;;;;;;;25.45;16.27;;;8.50;99.90;;;;;;5083858;28;20996;-91
2023/03/20 07:19:47;;;;;;;24.42;15.68;;;8.60;99.90;;;;;;5085218;28;20449;-92
2023/03/20 07:22:21;;;;;;;25.17;15.30;;;9.00;99.90;;;;;;5084319;28;20506;-91
2023/03/20 07:24:47;;;;;;;23.83;15.93;;;8.70;99.90;;;;;;5083821;28;20919;-91
2023/03/20 07:27:13;;;;;;;20.05;15.60;;;8.80;99.90;;;;;;5084672;28;20481;-91
2023/03/20 07:29:38;;;;;;;23.17;16.00;;;8.80;99.90;;;;;;5067503;28;20447;-91
2023/03/20 07:32:04;;;;;;;22.23;16.47;;;8.80;99.90;;;;;;5067732;28;21029;-91
2023/03/20 07:34:30;;;;;;;26.20;18.17;;;9.20;99.90;;;;;;5066873;28;20407;-91
2023/03/20 07:36:55;;;;;;;26.05;18.05;;;8.80;99.90;;;;;;5067803;28;21021;-93
2023/03/20 07:39:21;;;;;;;26.55;17.85;;;8.80;99.90;;;;;;5066046;28;20402;-91
2023/03/20 07:41:47;;;;;;;25.63;18.00;;;8.90;99.90;;;;;;5084750;28;20441;-91
2023/03/20 07:44:13;;;;;;;27.92;19.38;;;8.80;99.90;;;;;;5067456;28;20792;-90
2023/03/20 07:46:40;;;;;;;25.53;18.23;;;8.90;99.90;;;;;;5084160;28;20996;-92
2023/03/20 07:49:06;;;;;;;26.38;18.73;;;8.90;99.90;;;;;;5084031;28;20465;-92
2023/03/20 07:51:32;;;;;;;26.40;18.42;;;8.90;99.90;;;;;;5087036;28;20406;-91
2023/03/20 07:53:58;;;;;;;26.00;17.90;;;8.90;99.90;;;;;;5071409;28;20394;-92
2023/03/20 07:56:23;;;;;;;25.85;17.45;;;8.90;99.90;;;;;;5070153;28;20449;-93
2023/03/20 07:58:49;;;;;;;26.57;18.37;;;8.90;99.90;;;;;;5071488;28;20409;-92
2023/03/20 08:01:15;;;;;;;25.77;17.50;;;9.10;99.90;;;;;;5070277;28;20451;-92
2023/03/20 08:03:41;;;;;;;25.33;17.30;;;9.30;99.90;;;;;;5070266;28;20401;-91
2023/03/20 08:06:08;;;;;;;23.67;16.80;;;9.20;99.90;;;;;;5069657;28;20413;-91
2023/03/20 08:08:34;;;;;;;24.27;16.15;;;9.20;99.90;;;;;;5087560;28;20378;-93
2023/03/20 08:11:00;;;;;;;23.80;16.95;;;9.30;99.90;;;;;;5070211;28;20410;-91
2023/03/20 08:13:26;;;;;;;22.47;15.67;;;9.20;99.90;;;;;;5068704;28;20402;-91
2023/03/20 08:15:52;;;;;;;24.50;16.83;;;9.10;99.90;;;;;;5087293;28;20454;-90
2023/03/20 08:18:19;;;;;;;24.13;16.63;;;9.70;99.90;;;;;;5070186;28;20966;-90
2023/03/20 08:20:45;;;;;;;23.88;16.40;;;9.30;99.90;;;;;;5071274;28;20438;-92
2023/03/20 08:23:11;;;;;;;23.13;17.25;;;9.60;99.90;;;;;;5087447;28;20509;-93
2023/03/20 08:25:36;;;;;;;24.20;15.80;;;9.30;99.90;;;;;;5070300;28;20481;-92
2023/03/20 08:28:02;;;;;;;21.85;15.23;;;9.10;99.90;;;;;;5087306;28;20409;-90
2023/03/20 08:30:29;;;;;;;21.60;15.73;;;9.30;99.90;;;;;;5069839;28;20799;-93
2023/03/20 08:32:57;;;;;;;24.20;16.02;;;9.30;99.90;;;;;;5087578;28;20397;-91
2023/03/20 08:35:22;;;;;;;23.95;15.93;;;9.20;99.90;;;;;;5086418;28;20513;-91
2023/03/20 08:37:48;;;;;;;20.13;14.73;;;9.40;99.90;;;;;;5070692;28;20968;-92
2023/03/20 08:40:14;;;;;;;20.23;14.77;;;9.40;99.90;;;;;;5069749;28;20436;-91
2023/03/20 08:42:40;;;;;;;20.67;13.70;;;9.50;99.90;;;;;;5087002;28;20949;-92
2023/03/20 08:45:06;;;;;;;16.95;12.98;;;9.60;99.90;;;;;;5086913;28;20394;-92
2023/03/20 08:47:32;;;;;;;19.17;14.25;;;9.50;99.90;;;;;;5086854;28;20406;-92
2023/03/20 08:49:57;;;;;;;19.90;14.40;;;9.50;99.90;;;;;;5070544;28;20451;-91
2023/03/20 08:52:23;;;;;;;19.98;13.52;;;9.60;99.90;;;;;;5069095;28;20434;-92
2023/03/20 08:54:49;;;;;;;19.27;13.05;;;9.70;99.90;;;;;;5070673;28;20457;-92
2023/03/20 08:57:14;;;;;;;16.90;12.33;;;9.70;99.90;;;;;;5069108;28;20407;-91
2023/03/20 08:59:40;;;;;;;17.60;12.33;;;9.70;99.90;;;;;;5069557;28;20470;-92
2023/03/20 09:02:08;;;;;;;19.42;12.80;;;9.70;99.90;;;;;;5068606;28;20401;-91
2023/03/20 09:04:33;;;;;;;16.93;12.17;;;9.70;99.90;;;;;;5086649;28;20406;-93
2023/03/20 09:07:00;;;;;;;19.57;12.70;;;9.70;99.90;;;;;;5069254;28;20497;-91
2023/03/20 09:09:28;;;;;;;16.67;12.30;;;9.70;99.90;;;;;;5086361;28;20409;-92
2023/03/20 09:11:55;;;;;;;19.10;12.37;;;9.80;99.90;;;;;;5069877;28;20436;-91
2023/03/20 09:14:22;;;;;;;18.77;12.20;;;9.90;99.90;;;;;;5086061;28;20917;-91
2023/03/20 09:16:48;;;;;;;16.73;11.07;;;10.00;99.90;;;;;;5087050;28;20489;-93
2023/03/20 09:19:13;;;;;;;17.37;12.47;;;10.10;99.90;;;;;;5069019;28;20426;-90
2023/03/20 09:21:39;;;;;;;17.50;11.67;;;10.10;99.90;;;;;;5086428;28;20497;-92
2023/03/20 09:24:05;;;;;;;18.40;11.60;;;10.20;99.90;;;;;;5085818;28;20413;-92
2023/03/20 09:26:31;;;;;;;17.10;11.43;;;10.20;99.90;;;;;;5085947;28;20429;-92
2023/03/20 09:28:57;;;;;;;17.23;11.80;;;10.30;99.90;;;;;;5086858;28;20399;-91
2023/03/20 09:31:22;;;;;;;19.20;12.15;;;10.20;99.90;;;;;;5085615;28;20401;-93
2023/03/20 09:33:48;;;;;;;17.53;11.63;;;10.20;99.90;;;;;;5086576;28;20496;-92
2023/03/20 09:36:14;;;;;;;18.37;12.43;;;10.20;99.90;;;;;;5085106;28;21019;-91
2023/03/20 09:38:41;;;;;;;21.70;13.20;;;10.20;99.90;;;;;;5085875;28;20483;-92
2023/03/20 09:41:18;;;;;;;17.50;12.35;;;10.30;99.90;;;;;;5085666;28;20420;-92
2023/03/20 09:44:02;;;;;;;20.63;12.63;;;10.30;99.90;;;;;;5085778;28;20402;-92
2023/03/20 09:46:48;;;;;;;19.17;12.40;;;10.40;99.90;;;;;;5069668;28;20422;-91
2023/03/20 09:49:22;;;;;;;18.77;12.52;;;10.50;99.90;;;;;;5085355;28;20417;-91
2023/03/20 09:51:55;;;;;;;18.70;12.30;;;10.40;99.90;;;;;;5085486;28;20413;-91
2023/03/20 09:54:35;;;;;;;19.50;13.15;;;10.40;99.90;;;;;;5085958;28;20412;-91
2023/03/20 09:57:02;;;;;;;20.52;12.85;;;10.50;99.90;;;;;;5084756;28;20444;-91
2023/03/20 09:59:29;;;;;;;20.23;13.20;;;10.60;99.90;;;;;;5085190;28;20876;-91
2023/03/20 10:02:18;;;;;;;19.13;13.50;;;10.50;99.90;;;;;;5083537;28;20695;-93
2023/03/20 10:04:47;;;;;;;20.20;13.13;;;10.60;99.90;;;;;;5085083;28;20414;-91
2023/03/20 10:07:16;;;;;;;19.38;13.23;;;10.60;99.90;;;;;;5083911;28;20402;-90
2023/03/20 10:09:44;;;;;;;18.33;12.75;;;10.60;99.90;;;;;;5067404;28;20406;-93
2023/03/20 10:12:44;;;;;;;20.58;13.05;;;10.70;99.90;;;;;;5085584;28;20979;-90
2023/03/20 10:15:20;;;;;;;18.23;13.13;;;10.80;99.90;;;;;;5084915;28;20437;-93
2023/03/20 10:18:15;;;;;;;19.95;13.30;;;10.80;99.90;;;;;;5085891;28;20518;-92
2023/03/20 10:21:02;;;;;;;18.35;12.98;;;10.90;99.90;;;;;;5059136;28;20874;-91
2023/03/20 10:23:33;;;;;;;18.33;12.73;;;10.90;99.90;;;;;;5085101;28;20418;-91
2023/03/20 10:26:05;;;;;;;22.38;15.70;;;11.20;99.90;;;;;;5086137;28;20730;-92
2023/03/20 10:28:44;;;;;;;17.92;12.25;;;10.90;99.90;;;;;;5084633;28;20988;-92
2023/03/20 10:31:25;;;;;;;17.17;11.90;;;10.90;99.90;;;;;;5067723;28;20406;-92
2023/03/20 10:34:02;;;;;;;24.83;16.83;;;10.90;99.90;;;;;;5085428;28;20408;-91
2023/03/20 10:36:55;;;;;;;21.27;16.13;;;10.80;99.90;;;;;;5067425;28;20958;-91
2023/03/20 10:39:35;;;;;;;24.67;15.75;;;10.70;99.90;;;;;;5085708;28;20422;-93
2023/03/20 10:42:05;;;;;;;28.08;19.05;;;10.70;99.90;;;;;;5067785;28;20401;-91
2023/03/20 10:44:39;;;;;;;22.67;14.88;;;10.70;99.90;;;;;;5084362;28;20402;-92
2023/03/20 10:47:08;;;;;;;41.92;27.58;;;10.70;99.90;;;;;;5085295;28;20417;-92
2023/03/20 10:49:46;;;;;;;40.50;26.55;;;10.80;99.90;;;;;;5084158;28;20599;-91
2023/03/20 10:52:36;;;;;;;34.33;21.85;;;10.90;99.90;;;;;;5085382;28;20413;-91
2023/03/20 10:55:11;;;;;;;22.67;13.95;;;10.90;99.90;;;;;;5057944;28;20525;-92
2023/03/20 10:57:41;;;;;;;16.75;10.90;;;11.00;99.90;;;;;;5084364;28;20908;-92
2023/03/20 11:00:19;;;;;;;21.95;14.68;;;10.90;99.90;;;;;;5085328;28;20806;-92
2023/03/20 11:02:45;;;;;;;15.43;11.32;;;10.90;99.90;;;;;;5083896;28;20402;-92
2023/03/20 11:05:30;;;;;;;18.07;12.00;;;10.90;99.90;;;;;;5085284;28;20413;-91
2023/03/20 11:08:07;;;;;;;16.95;11.43;;;10.80;99.90;;;;;;5084462;28;20410;-91
2023/03/20 11:10:35;;;;;;;21.40;11.57;;;10.90;99.90;;;;;;5084214;28;20417;-92
2023/03/20 11:13:15;;;;;;;20.00;11.82;;;10.80;99.90;;;;;;5085052;28;20897;-91
2023/03/20 11:15:41;;;;;;;19.77;12.80;;;10.70;99.90;;;;;;5084232;28;20960;-91
2023/03/20 11:18:13;;;;;;;18.42;11.60;;;10.60;99.90;;;;;;5085302;28;20425;-92
2023/03/20 11:20:56;;;;;;;18.80;11.88;;;10.70;99.90;;;;;;5084089;28;22177;-93
2023/03/20 11:23:33;;;;;;;16.92;11.15;;;10.70;99.90;;;;;;5084556;28;20457;-92
2023/03/20 11:26:03;;;;;;;18.90;11.85;;;10.60;99.90;;;;;;5088084;28;20761;-91
2023/03/20 11:28:47;;;;;;;16.53;11.27;;;10.40;99.90;;;;;;5087895;28;20406;-91
2023/03/20 11:31:12;;;;;;;17.40;12.13;;;10.20;99.90;;;;;;5071582;28;20892;-92
2023/03/20 11:33:45;;;;;;;17.60;12.30;;;10.10;99.90;;;;;;5071901;28;20402;-91
2023/03/20 11:36:23;;;;;;;19.92;13.93;;;10.10;99.90;;;;;;5087980;28;20429;-92
2023/03/20 11:38:50;;;;;;;21.60;15.00;;;10.00;99.90;;;;;;5088630;28;20402;-92
2023/03/20 11:41:27;;;;;;;19.98;15.80;;;10.00;99.90;;;;;;5087539;28;20390;-91
2023/03/20 11:43:53;;;;;;;22.90;15.98;;;10.00;99.90;;;;;;5088674;28;20494;-92
2023/03/20 11:46:24;;;;;;;19.77;16.17;;;10.00;99.90;;;;;;5087610;28;20559;-91
2023/03/20 11:49:23;;;;;;;21.77;16.20;;;10.10;99.90;;;;;;5088081;28;20422;-92
2023/03/20 11:51:50;;;;;;;18.83;13.90;;;10.10;99.90;;;;;;5028410;28;20432;-91
2023/03/20 11:54:22;;;;;;;18.30;12.55;;;10.10;99.90;;;;;;5087460;28;20410;-92
2023/03/20 11:56:53;;;;;;;17.67;12.63;;;9.80;99.90;;;;;;5088570;28;20808;-92
2023/03/20 11:59:19;;;;;;;19.00;13.27;;;10.00;99.90;;;;;;5070441;28;20448;-92
2023/03/20 12:01:48;;;;;;;19.50;13.27;;;10.00;99.90;;;;;;5070885;28;20409;-92
2023/03/20 12:04:29;;;;;;;18.48;13.38;;;9.80;99.90;;;;;;5088293;28;20420;-91
2023/03/20 12:07:26;;;;;;;21.10;14.13;;;9.80;99.90;;;;;;5087025;28;20567;-93
2023/03/20 12:09:53;;;;;;;18.98;14.15;;;9.70;99.90;;;;;;5088104;28;20431;-91
2023/03/20 12:12:26;;;;;;;20.03;13.73;;;9.60;99.90;;;;;;5087792;28;20648;-91
2023/03/20 12:15:22;;;;;;;19.33;12.85;;;9.50;99.90;;;;;;5070803;28;20406;-92
2023/03/20 12:17:54;;;;;;;20.95;13.88;;;9.40;99.90;;;;;;5087920;28;20414;-91
2023/03/20 12:20:24;;;;;;;21.23;14.98;;;9.40;99.90;;;;;;5086940;28;20559;-93
2023/03/20 12:23:01;;;;;;;22.05;15.68;;;9.30;99.90;;;;;;5088458;28;20453;-92
2023/03/20 12:25:36;;;;;;;18.17;15.98;;;9.20;99.90;;;;;;5087770;28;20512;-91
2023/03/20 12:28:04;;;;;;;19.00;16.10;;;9.30;99.90;;;;;;5087612;28;20443;-92
2023/03/20 12:30:56;;;;;;;17.73;15.68;;;9.30;99.90;;;;;;5087615;28;20898;-91
2023/03/20 12:33:44;;;;;;;19.77;17.13;;;9.40;99.90;;;;;;5103392;28;20448;-92
2023/03/20 12:36:16;;;;;;;21.52;16.85;;;9.40;99.90;;;;;;5069378;28;20422;-91
2023/03/20 12:38:43;;;;;;;20.27;17.35;;;9.40;99.90;;;;;;5087244;28;20500;-91
2023/03/20 12:41:22;;;;;;;25.23;17.45;;;9.40;99.90;;;;;;5086762;28;20420;-92
2023/03/20 12:44:03;;;;;;;22.47;17.40;;;9.40;99.90;;;;;;5070284;28;20406;-91
2023/03/20 12:46:51;;;;;;;21.55;18.15;;;9.40;99.90;;;;;;5086201;28;20423;-92
2023/03/20 12:49:22;;;;;;;20.67;17.33;;;9.50;99.90;;;;;;5070356;28;20470;-91
2023/03/20 12:52:09;;;;;;;22.92;18.48;;;9.50;99.90;;;;;;5087156;28;20441;-91
2023/03/20 12:54:44;;;;;;;21.67;17.60;;;9.50;99.90;;;;;;5103479;28;20708;-91
2023/03/20 12:57:32;;;;;;;20.70;18.30;;;9.50;99.90;;;;;;5070375;28;20437;-92
2023/03/20 13:00:15;;;;;;;19.90;16.17;;;9.50;99.90;;;;;;5086466;28;20414;-92